createdAt,value
2019-01-10T00:01:19.221Z,6.40
2019-01-10T00:03:48.493Z,11.03
2019-01-10T00:06:17.748Z,5.80
2019-01-10T00:08:47.050Z,14.43
2019-01-10T00:11:16.314Z,11.13
2019-01-10T00:13:45.585Z,5.97
2019-01-10T00:16:14.848Z,10.27
2019-01-10T00:18:44.112Z,6.97
2019-01-10T00:21:13.388Z,6.70
2019-01-10T00:23:42.656Z,6.00
2019-01-10T00:26:11.929Z,6.13
2019-01-10T00:28:41.242Z,6.47
2019-01-10T00:31:10.528Z,7.83
2019-01-10T00:33:39.789Z,7.23
2019-01-10T00:36:09.066Z,6.73
2019-01-10T00:38:38.325Z,7.80
2019-01-10T00:41:07.606Z,8.00
2019-01-10T00:43:36.866Z,6.83
2019-01-10T00:46:06.409Z,6.43
2019-01-10T00:48:35.669Z,5.93
2019-01-10T00:51:05.012Z,5.37
2019-01-10T00:53:34.548Z,4.23
2019-01-10T00:56:04.393Z,4.67
2019-01-10T00:58:33.650Z,6.37
2019-01-10T01:01:02.921Z,6.33
2019-01-10T01:03:32.244Z,6.93
2019-01-10T01:06:01.525Z,4.93
2019-01-10T01:08:30.796Z,5.83
2019-01-10T01:11:00.370Z,4.47
2019-01-10T01:13:29.628Z,6.00
2019-01-10T01:15:58.992Z,6.53
2019-01-10T01:18:28.249Z,6.47
2019-01-10T01:20:57.521Z,5.47
2019-01-10T01:23:26.786Z,7.30
2019-01-10T01:25:56.064Z,6.00
2019-01-10T01:28:25.321Z,7.33
2019-01-10T01:30:54.592Z,7.90
2019-01-10T01:33:23.865Z,6.37
2019-01-10T01:35:53.155Z,8.20
2019-01-10T01:38:22.415Z,10.63
2019-01-10T01:40:51.683Z,6.90
2019-01-10T01:43:20.953Z,8.13
2019-01-10T01:45:50.467Z,7.47
2019-01-10T01:48:19.740Z,10.07
2019-01-10T01:50:49.004Z,8.33
2019-01-10T01:53:18.349Z,10.17
2019-01-10T01:55:48.842Z,8.50
2019-01-10T01:58:18.253Z,7.70
2019-01-10T02:00:47.652Z,5.13
2019-01-10T02:03:16.998Z,7.17
2019-01-10T02:05:46.650Z,5.80
2019-01-10T02:08:15.979Z,7.40
2019-01-10T02:10:45.278Z,6.90
2019-01-10T02:13:16.832Z,5.90
2019-01-10T02:15:45.650Z,8.00
2019-01-10T02:18:14.923Z,8.03
2019-01-10T02:20:44.205Z,7.93
2019-01-10T02:23:13.480Z,5.03
2019-01-10T02:25:43.053Z,9.30
2019-01-10T02:28:12.330Z,7.60
2019-01-10T02:30:42.374Z,7.40
2019-01-10T02:33:11.787Z,9.27
2019-01-10T02:35:41.053Z,8.00
2019-01-10T02:38:10.596Z,5.07
2019-01-10T02:40:40.193Z,10.37
2019-01-10T02:43:09.461Z,7.57
2019-01-10T02:45:38.739Z,6.67
2019-01-10T02:48:07.998Z,6.27
2019-01-10T02:50:37.273Z,5.17
2019-01-10T02:53:06.535Z,8.20
2019-01-10T02:55:35.808Z,8.60
2019-01-10T02:58:05.152Z,8.50
2019-01-10T03:00:34.578Z,7.30
2019-01-10T03:03:03.911Z,6.23
2019-01-10T03:05:33.180Z,6.50
2019-01-10T03:08:02.455Z,6.00
2019-01-10T03:10:31.716Z,3.97
2019-01-10T03:13:00.977Z,7.63
2019-01-10T03:15:30.251Z,8.23
2019-01-10T03:17:59.509Z,8.83
2019-01-10T03:20:28.788Z,8.83
2019-01-10T03:22:58.150Z,7.97
2019-01-10T03:25:27.481Z,10.03
2019-01-10T03:27:56.746Z,9.00
2019-01-10T03:30:26.049Z,8.53
2019-01-10T03:32:55.286Z,9.10
2019-01-10T03:35:24.559Z,6.30
2019-01-10T03:37:53.826Z,9.23
2019-01-10T03:40:23.097Z,5.70
2019-01-10T03:42:52.352Z,6.10
2019-01-10T03:45:21.693Z,5.20
2019-01-10T03:47:50.958Z,5.93
2019-01-10T03:50:20.296Z,7.23
2019-01-10T03:52:49.563Z,7.20
2019-01-10T03:55:18.824Z,8.10
2019-01-10T03:57:49.069Z,11.03
2019-01-10T04:00:21.794Z,7.43
2019-01-10T04:02:51.085Z,24.13
2019-01-10T04:05:20.402Z,9.73
2019-01-10T04:07:49.940Z,8.97
2019-01-10T04:10:19.225Z,8.33
2019-01-10T04:12:48.476Z,7.13
2019-01-10T04:15:18.014Z,7.43
2019-01-10T04:17:47.415Z,10.43
2019-01-10T04:20:17.933Z,6.90
2019-01-10T04:22:47.573Z,11.43
2019-01-10T04:25:16.919Z,13.57
2019-01-10T04:27:46.186Z,9.97
2019-01-10T04:30:19.088Z,8.60
2019-01-10T04:32:48.410Z,7.80
2019-01-10T04:35:17.688Z,113.10
2019-01-10T04:37:46.967Z,21.03
2019-01-10T04:40:18.288Z,9.10
2019-01-10T04:42:47.823Z,9.53
2019-01-10T04:45:17.348Z,6.77
2019-01-10T04:47:46.631Z,10.13
2019-01-10T04:50:16.339Z,7.93
2019-01-10T04:52:45.613Z,7.40
2019-01-10T04:55:15.014Z,7.00
2019-01-10T04:57:44.274Z,7.33
2019-01-10T05:00:17.178Z,7.43
2019-01-10T05:02:46.457Z,10.00
2019-01-10T05:05:15.961Z,10.80
2019-01-10T05:07:45.238Z,21.70
2019-01-10T05:10:14.508Z,12.37
2019-01-10T05:12:43.824Z,11.70
2019-01-10T05:15:15.286Z,9.37
2019-01-10T05:17:44.540Z,8.73
2019-01-10T05:20:16.331Z,9.17
2019-01-10T05:22:45.821Z,6.13
2019-01-10T05:25:15.156Z,28.87
2019-01-10T05:27:44.574Z,16.03
2019-01-10T05:30:17.177Z,14.67
2019-01-10T05:32:46.505Z,9.30
2019-01-10T05:35:15.818Z,9.67
2019-01-10T05:37:45.105Z,9.53
2019-01-10T05:40:14.430Z,8.50
2019-01-10T05:42:44.093Z,20.43
2019-01-10T05:45:15.618Z,12.93
2019-01-10T05:47:44.893Z,8.37
2019-01-10T05:50:17.655Z,6.93
2019-01-10T05:52:46.753Z,15.10
2019-01-10T05:55:17.855Z,11.27
2019-01-10T05:57:47.159Z,9.10
2019-01-10T06:00:25.291Z,8.43
2019-01-10T06:02:54.637Z,8.73
2019-01-10T06:05:23.916Z,8.60
2019-01-10T06:07:53.170Z,9.70
2019-01-10T06:10:24.926Z,6.17
2019-01-10T06:12:54.241Z,8.37
2019-01-10T06:15:23.589Z,7.37
2019-01-10T06:17:52.855Z,5.83
2019-01-10T06:20:23.679Z,6.40
2019-01-10T06:22:53.278Z,7.00
2019-01-10T06:25:22.570Z,6.87
2019-01-10T06:27:51.898Z,7.27
2019-01-10T06:30:22.701Z,7.13
2019-01-10T06:32:51.969Z,10.50
2019-01-10T06:35:21.246Z,8.27
2019-01-10T06:37:50.518Z,7.33
2019-01-10T06:40:32.046Z,6.40
2019-01-10T06:42:58.600Z,9.67
2019-01-10T06:45:27.947Z,8.93
2019-01-10T06:47:57.532Z,10.83
2019-01-10T06:50:26.808Z,9.60
2019-01-10T06:52:56.085Z,10.43
2019-01-10T06:55:25.357Z,11.97
2019-01-10T06:57:54.616Z,9.43
2019-01-10T07:00:24.257Z,8.47
2019-01-10T07:02:53.531Z,10.57
2019-01-10T07:05:22.882Z,9.37
2019-01-10T07:07:56.604Z,7.00
2019-01-10T07:10:25.257Z,8.63
2019-01-10T07:12:54.841Z,10.07
2019-01-10T07:15:24.112Z,10.83
2019-01-10T07:17:53.372Z,9.10
2019-01-10T07:20:22.642Z,7.97
2019-01-10T07:22:53.266Z,10.43
2019-01-10T07:25:22.631Z,13.30
2019-01-10T07:27:51.888Z,9.67
2019-01-10T07:30:35.503Z,13.67
2019-01-10T07:32:56.985Z,8.10
2019-01-10T07:35:26.261Z,14.50
2019-01-10T07:37:55.667Z,10.80
2019-01-10T07:40:25.021Z,17.93
2019-01-10T07:42:55.355Z,11.93
2019-01-10T07:45:24.791Z,21.90
2019-01-10T07:47:54.051Z,16.83
2019-01-10T07:50:28.269Z,16.20
2019-01-10T07:52:57.626Z,35.90
2019-01-10T07:55:26.890Z,35.83
2019-01-10T07:57:56.162Z,15.83
2019-01-10T08:00:25.420Z,8.70
2019-01-10T08:02:54.697Z,12.97
2019-01-10T08:05:23.963Z,47.67
2019-01-10T08:07:53.245Z,88.53
2019-01-10T08:10:22.528Z,35.30
2019-01-10T08:12:51.851Z,37.43
2019-01-10T08:15:22.022Z,133.00
2019-01-10T08:17:51.301Z,147.43
2019-01-10T08:20:20.582Z,126.83
2019-01-10T08:22:49.931Z,25.77
2019-01-10T08:25:19.214Z,83.53
2019-01-10T08:27:48.565Z,51.87
2019-01-10T08:30:20.177Z,21.60
2019-01-10T08:32:49.453Z,34.27
2019-01-10T08:35:22.032Z,50.97
2019-01-10T08:37:51.322Z,18.10
2019-01-10T08:40:20.577Z,25.37
2019-01-10T08:42:49.845Z,27.77
2019-01-10T08:45:21.818Z,26.07
2019-01-10T08:47:50.173Z,36.73
2019-01-10T08:50:22.496Z,27.23
2019-01-10T08:52:51.768Z,30.47
2019-01-10T08:55:21.126Z,27.13
2019-01-10T08:57:50.396Z,26.60
2019-01-10T09:00:21.014Z,17.00
2019-01-10T09:02:50.349Z,13.00
2019-01-10T09:05:19.627Z,11.07
2019-01-10T09:07:48.885Z,9.37
2019-01-10T09:10:21.373Z,9.23
2019-01-10T09:12:50.628Z,8.23
2019-01-10T09:15:25.239Z,11.53
2019-01-10T09:17:52.826Z,8.27
2019-01-10T09:20:22.107Z,8.03
2019-01-10T09:22:51.364Z,9.07
2019-01-10T09:25:20.643Z,8.80
2019-01-10T09:27:49.977Z,8.40
2019-01-10T09:30:20.764Z,10.63
2019-01-10T09:32:50.396Z,7.47
2019-01-10T09:35:20.005Z,6.70
2019-01-10T09:37:49.603Z,7.87
2019-01-10T09:40:20.619Z,8.20
2019-01-10T09:42:50.023Z,9.10
2019-01-10T09:45:23.970Z,10.43
2019-01-10T09:47:53.296Z,8.63
2019-01-10T09:50:22.942Z,11.30
2019-01-10T09:52:52.273Z,8.73
2019-01-10T09:55:21.624Z,8.70
2019-01-10T09:57:50.965Z,7.87
2019-01-10T10:00:25.603Z,6.77
2019-01-10T10:02:54.857Z,8.40
2019-01-10T10:05:25.202Z,9.60
2019-01-10T10:07:54.534Z,8.30
2019-01-10T10:10:23.805Z,6.70
2019-01-10T10:12:53.134Z,8.70
2019-01-10T10:15:22.669Z,10.90
2019-01-10T10:17:51.936Z,9.83
2019-01-10T10:20:22.944Z,8.10
2019-01-10T10:22:52.278Z,9.80
2019-01-10T10:25:21.557Z,6.07
2019-01-10T10:27:50.812Z,7.43
2019-01-10T10:30:20.925Z,6.50
2019-01-10T10:32:50.172Z,6.53
2019-01-10T10:35:19.586Z,8.63
2019-01-10T10:37:49.112Z,6.73
2019-01-10T10:40:19.421Z,5.20
2019-01-10T10:42:49.256Z,7.93
2019-01-10T10:45:19.669Z,5.40
2019-01-10T10:47:48.933Z,7.77
2019-01-10T10:50:24.369Z,7.53
2019-01-10T10:52:53.627Z,12.20
2019-01-10T10:55:22.901Z,13.93
2019-01-10T10:57:52.237Z,6.13
2019-01-10T11:00:24.409Z,4.83
2019-01-10T11:02:53.920Z,6.43
2019-01-10T11:05:23.319Z,4.70
2019-01-10T11:07:52.590Z,5.50
2019-01-10T11:10:21.993Z,6.30
2019-01-10T11:12:51.257Z,6.50
2019-01-10T11:15:20.519Z,6.73
2019-01-10T11:17:49.794Z,5.27
2019-01-10T11:20:21.194Z,5.20
2019-01-10T11:22:50.806Z,7.57
2019-01-10T11:25:22.301Z,7.13
2019-01-10T11:27:51.581Z,5.57
2019-01-10T11:30:21.275Z,4.77
2019-01-10T11:32:53.710Z,5.87
2019-01-10T11:35:22.573Z,6.47
2019-01-10T11:37:51.857Z,4.63
2019-01-10T11:40:22.318Z,6.57
2019-01-10T11:42:51.592Z,7.20
2019-01-10T11:45:22.193Z,6.57
2019-01-10T11:47:51.528Z,9.07
2019-01-10T11:50:20.842Z,10.70
2019-01-10T11:52:50.580Z,5.77
2019-01-10T11:55:19.878Z,5.23
2019-01-10T11:57:49.145Z,6.17
2019-01-10T12:00:24.210Z,5.67
2019-01-10T12:02:53.490Z,6.27
2019-01-10T12:05:22.885Z,7.57
2019-01-10T12:07:52.396Z,7.90
2019-01-10T12:10:23.266Z,4.17
2019-01-10T12:12:54.240Z,4.83
2019-01-10T12:15:23.510Z,4.37
2019-01-10T12:17:52.783Z,3.83
2019-01-10T12:20:22.040Z,8.97
2019-01-10T12:22:51.317Z,3.20
2019-01-10T12:25:21.641Z,4.50
2019-01-10T12:27:50.908Z,5.23
2019-01-10T12:30:24.366Z,5.23
2019-01-10T12:32:53.628Z,1.83
2019-01-10T12:35:23.080Z,4.97
2019-01-10T12:37:52.404Z,4.70
2019-01-10T12:40:21.652Z,2.70
2019-01-10T12:42:52.632Z,2.93
2019-01-10T12:45:21.984Z,2.47
2019-01-10T12:47:51.233Z,7.83
2019-01-10T12:50:23.565Z,3.67
2019-01-10T12:52:53.074Z,4.00
2019-01-10T12:55:22.369Z,4.63
2019-01-10T12:57:51.817Z,2.40
2019-01-10T13:00:23.222Z,3.87
2019-01-10T13:02:53.860Z,2.67
2019-01-10T13:05:23.299Z,4.13
2019-01-10T13:07:53.162Z,2.73
2019-01-10T13:10:22.512Z,4.60
2019-01-10T13:12:51.778Z,5.03
2019-01-10T13:15:23.105Z,7.10
2019-01-10T13:17:52.717Z,6.80
2019-01-10T13:20:22.156Z,4.43
2019-01-10T13:22:51.417Z,7.80
2019-01-10T13:25:21.337Z,14.30
2019-01-10T13:27:50.921Z,5.23
2019-01-10T13:30:22.121Z,3.83
2019-01-10T13:32:51.995Z,2.90
2019-01-10T13:35:21.587Z,4.47
2019-01-10T13:37:50.858Z,3.60
2019-01-10T13:40:20.202Z,5.50
2019-01-10T13:42:49.942Z,3.33
2019-01-10T13:45:19.476Z,5.70
2019-01-10T13:47:49.646Z,4.43
2019-01-10T13:50:27.326Z,2.13
2019-01-10T13:52:56.990Z,17.43
2019-01-10T13:55:26.534Z,4.33
2019-01-10T13:57:55.931Z,3.73
2019-01-10T14:00:27.336Z,12.17
2019-01-10T14:02:56.612Z,5.87
2019-01-10T14:05:25.934Z,2.70
2019-01-10T14:07:55.333Z,3.30
2019-01-10T14:10:24.682Z,5.50
2019-01-10T14:12:54.077Z,3.37
2019-01-10T14:15:26.937Z,2.47
2019-01-10T14:17:57.212Z,3.23
2019-01-10T14:20:26.570Z,2.23
2019-01-10T14:22:55.857Z,3.10
2019-01-10T14:25:25.481Z,3.63
2019-01-10T14:27:59.519Z,2.47
2019-01-10T14:30:29.552Z,3.07
2019-01-10T14:32:58.906Z,2.73
2019-01-10T14:35:29.372Z,3.13
2019-01-10T14:37:58.783Z,7.70
2019-01-10T14:40:28.284Z,5.00
2019-01-10T14:42:57.625Z,5.97
2019-01-10T14:45:28.707Z,2.30
2019-01-10T14:48:01.831Z,2.77
2019-01-10T14:50:28.986Z,4.03
2019-01-10T14:52:58.326Z,2.67
2019-01-10T14:55:27.608Z,3.63
2019-01-10T14:57:57.030Z,3.83
2019-01-10T15:00:26.387Z,2.23
2019-01-10T15:02:55.975Z,4.07
2019-01-10T15:05:25.324Z,5.00
2019-01-10T15:07:54.664Z,5.20
2019-01-10T15:10:24.000Z,4.27
2019-01-10T15:12:53.451Z,3.60
2019-01-10T15:15:23.290Z,6.23
2019-01-10T15:17:52.813Z,4.57
2019-01-10T15:20:26.921Z,9.67
2019-01-10T15:22:56.328Z,12.80
2019-01-10T15:25:25.653Z,6.03
2019-01-10T15:27:55.222Z,4.93
2019-01-10T15:30:26.189Z,3.30
2019-01-10T15:32:56.213Z,6.70
2019-01-10T15:35:25.844Z,5.17
2019-01-10T15:37:55.225Z,5.13
2019-01-10T15:40:27.901Z,4.43
2019-01-10T15:42:57.177Z,3.60
2019-01-10T15:45:26.437Z,2.47
2019-01-10T15:47:55.720Z,2.50
2019-01-10T15:50:25.081Z,4.53
2019-01-10T15:52:54.413Z,4.27
2019-01-10T15:55:23.762Z,3.77
2019-01-10T15:57:54.104Z,4.53
2019-01-10T16:00:24.681Z,3.67
2019-01-10T16:02:54.154Z,6.30
2019-01-10T16:05:23.445Z,9.33
2019-01-10T16:07:52.807Z,4.90
2019-01-10T16:10:22.550Z,4.83
2019-01-10T16:12:52.100Z,4.47
2019-01-10T16:15:23.141Z,6.70
2019-01-10T16:17:52.774Z,3.13
2019-01-10T16:20:22.182Z,3.90
2019-01-10T16:22:51.622Z,3.90
2019-01-10T16:25:20.966Z,5.30
2019-01-10T16:27:50.303Z,3.47
2019-01-10T16:30:21.965Z,4.37
2019-01-10T16:32:51.405Z,4.67
2019-01-10T16:35:20.828Z,6.23
2019-01-10T16:37:50.365Z,4.77
2019-01-10T16:40:20.831Z,4.07
2019-01-10T16:42:50.255Z,4.80
2019-01-10T16:45:22.916Z,5.53
2019-01-10T16:47:52.263Z,5.10
2019-01-10T16:50:21.578Z,5.63
2019-01-10T16:52:50.876Z,4.40
2019-01-10T16:55:20.406Z,4.80
2019-01-10T16:57:49.710Z,10.57
2019-01-10T17:00:24.421Z,15.17
2019-01-10T17:02:53.876Z,11.23
2019-01-10T17:05:23.336Z,7.93
2019-01-10T17:07:52.586Z,4.80
2019-01-10T17:10:22.241Z,3.90
2019-01-10T17:12:51.664Z,4.30
2019-01-10T17:15:21.578Z,3.47
2019-01-10T17:17:50.923Z,25.60
2019-01-10T17:20:24.929Z,7.97
2019-01-10T17:22:54.276Z,14.07
2019-01-10T17:25:23.812Z,10.70
2019-01-10T17:27:53.179Z,8.27
2019-01-10T17:30:24.694Z,22.80
2019-01-10T17:32:54.073Z,18.70
2019-01-10T17:35:32.142Z,6.53
2019-01-10T17:38:01.702Z,23.73
2019-01-10T17:40:31.242Z,13.73
2019-01-10T17:43:00.723Z,32.93
2019-01-10T17:45:32.037Z,27.40
2019-01-10T17:48:01.780Z,17.77
2019-01-10T17:50:31.100Z,18.83
2019-01-10T17:53:00.729Z,34.10
2019-01-10T17:55:30.095Z,53.47
2019-01-10T17:57:59.550Z,18.50
2019-01-10T18:00:30.241Z,14.50
2019-01-10T18:02:59.777Z,13.03
2019-01-10T18:05:30.861Z,12.93
2019-01-10T18:08:00.426Z,11.40
2019-01-10T18:10:29.905Z,29.50
2019-01-10T18:12:59.430Z,11.63
2019-01-10T18:15:28.797Z,11.67
2019-01-10T18:17:58.182Z,20.13
2019-01-10T18:20:33.454Z,16.07
2019-01-10T18:23:02.759Z,11.07
2019-01-10T18:25:32.225Z,4.83
2019-01-10T18:28:01.493Z,5.10
2019-01-10T18:30:30.757Z,6.10
2019-01-10T18:33:00.028Z,5.80
2019-01-10T18:35:29.413Z,19.40
2019-01-10T18:37:58.784Z,16.07
2019-01-10T18:40:28.114Z,11.73
2019-01-10T18:42:57.458Z,6.00
2019-01-10T18:45:29.094Z,3.70
2019-01-10T18:47:58.526Z,7.30
2019-01-10T18:50:27.854Z,17.33
2019-01-10T18:52:57.369Z,19.47
2019-01-10T18:55:26.716Z,12.87
2019-01-10T18:57:56.025Z,9.17
2019-01-10T19:00:27.546Z,4.03
2019-01-10T19:02:57.465Z,11.73
2019-01-10T19:05:27.176Z,4.93
2019-01-10T19:07:56.580Z,12.63
2019-01-10T19:10:26.184Z,11.53
2019-01-10T19:12:56.770Z,11.43
2019-01-10T19:15:26.039Z,11.03
2019-01-10T19:17:55.516Z,13.50
2019-01-10T19:20:26.565Z,27.87
2019-01-10T19:22:56.993Z,10.80
2019-01-10T19:25:26.257Z,9.50
2019-01-10T19:27:55.752Z,6.17
2019-01-10T19:30:27.792Z,9.63
2019-01-10T19:32:57.281Z,17.83
2019-01-10T19:35:26.686Z,17.33
2019-01-10T19:37:56.036Z,8.67
2019-01-10T19:40:25.303Z,5.43
2019-01-10T19:42:54.918Z,8.90
2019-01-10T19:45:24.346Z,16.70
2019-01-10T19:47:53.694Z,18.50
2019-01-10T19:50:24.846Z,5.37
2019-01-10T19:52:55.189Z,11.87
2019-01-10T19:55:24.524Z,11.70
2019-01-10T19:57:54.110Z,9.87
2019-01-10T20:00:32.768Z,8.40
2019-01-10T20:03:02.128Z,4.33
2019-01-10T20:05:31.399Z,7.50
2019-01-10T20:08:00.746Z,5.40
2019-01-10T20:10:31.196Z,9.80
2019-01-10T20:13:00.563Z,4.97
2019-01-10T20:15:29.888Z,4.30
2019-01-10T20:17:59.184Z,6.17
2019-01-10T20:20:35.499Z,35.87
2019-01-10T20:23:06.813Z,52.83
2019-01-10T20:25:37.476Z,10.33
2019-01-10T20:28:07.143Z,7.20
2019-01-10T20:30:36.772Z,14.20
2019-01-10T20:33:06.215Z,8.70
2019-01-10T20:35:35.826Z,5.27
2019-01-10T20:38:06.232Z,4.97
2019-01-10T20:40:35.505Z,2.53
2019-01-10T20:43:04.936Z,2.63
2019-01-10T20:45:34.372Z,6.17
2019-01-10T20:48:03.629Z,4.93
2019-01-10T20:50:32.913Z,5.30
2019-01-10T20:53:03.274Z,32.90
2019-01-10T20:55:32.655Z,268.93
2019-01-10T20:58:02.215Z,126.80
2019-01-10T21:00:31.752Z,231.33
2019-01-10T21:03:02.423Z,98.53
2019-01-10T21:05:31.685Z,44.30
2019-01-10T21:08:00.949Z,13.13
2019-01-10T21:10:30.713Z,4.23
2019-01-10T21:13:01.019Z,8.13
2019-01-10T21:15:30.369Z,11.53
2019-01-10T21:17:59.801Z,6.60
2019-01-10T21:20:29.228Z,6.83
2019-01-10T21:22:59.425Z,9.63
2019-01-10T21:25:29.132Z,5.43
2019-01-10T21:27:58.758Z,20.87
2019-01-10T21:30:28.060Z,24.07
2019-01-10T21:32:57.331Z,42.73
2019-01-10T21:35:26.598Z,18.13
2019-01-10T21:37:55.945Z,19.80
2019-01-10T21:40:25.525Z,3.37
2019-01-10T21:42:54.805Z,2.27
2019-01-10T21:45:24.217Z,3.27
2019-01-10T21:47:53.491Z,7.13
2019-01-10T21:50:26.042Z,3.50
2019-01-10T21:52:55.413Z,4.07
2019-01-10T21:55:24.848Z,4.73
2019-01-10T21:57:54.411Z,5.00
2019-01-10T22:00:26.358Z,11.67
2019-01-10T22:02:56.278Z,8.90
2019-01-10T22:05:25.529Z,3.63
2019-01-10T22:07:54.870Z,3.67
2019-01-10T22:10:24.134Z,3.37
2019-01-10T22:12:53.410Z,4.90
2019-01-10T22:15:22.676Z,2.77
2019-01-10T22:17:51.957Z,2.10
2019-01-10T22:20:22.248Z,2.60
2019-01-10T22:22:51.524Z,3.17
2019-01-10T22:25:21.052Z,3.13
2019-01-10T22:27:50.325Z,3.00
2019-01-10T22:30:22.669Z,4.10
2019-01-10T22:32:51.945Z,3.07
2019-01-10T22:35:22.349Z,5.00
2019-01-10T22:37:51.749Z,2.97
2019-01-10T22:40:22.525Z,2.70
2019-01-10T22:42:52.229Z,3.23
2019-01-10T22:45:21.486Z,4.90
2019-01-10T22:47:50.764Z,7.77
2019-01-10T22:50:21.310Z,3.00
2019-01-10T22:52:51.514Z,3.40
2019-01-10T22:55:21.848Z,5.33
2019-01-10T22:57:51.108Z,5.33
2019-01-10T23:00:50.572Z,2.90
2019-01-10T23:03:20.111Z,3.60
2019-01-10T23:05:49.441Z,2.73
2019-01-10T23:08:18.725Z,3.67
2019-01-10T23:10:48.129Z,2.37
2019-01-10T23:13:17.489Z,5.37
2019-01-10T23:15:46.813Z,3.10
2019-01-10T23:18:16.081Z,6.90
2019-01-10T23:20:50.056Z,4.00
2019-01-10T23:23:19.661Z,3.00
2019-01-10T23:25:53.500Z,2.20
2019-01-10T23:28:22.913Z,2.37
2019-01-10T23:31:00.222Z,2.40
2019-01-10T23:33:29.636Z,9.60
2019-01-10T23:36:01.105Z,11.00
2019-01-10T23:38:30.768Z,23.10
2019-01-10T23:41:00.692Z,49.63
2019-01-10T23:43:30.010Z,32.03
2019-01-10T23:45:59.301Z,9.20
2019-01-10T23:48:28.637Z,5.87
2019-01-10T23:50:58.034Z,8.30
2019-01-10T23:53:27.301Z,8.77
2019-01-10T23:55:56.573Z,6.90
2019-01-10T23:58:26.596Z,8.20
